createdAt,value
2018-02-23T00:00:52.348Z,27.20
2018-02-23T00:03:19.828Z,26.80
2018-02-23T00:05:47.726Z,29.50
2018-02-23T00:08:16.026Z,26.62
2018-02-23T00:10:43.517Z,27.05
2018-02-23T00:13:11.319Z,26.95
2018-02-23T00:15:39.650Z,27.23
2018-02-23T00:18:07.125Z,27.40
2018-02-23T00:20:35.020Z,28.00
2018-02-23T00:23:02.556Z,27.45
2018-02-23T00:25:30.053Z,26.12
2018-02-23T00:27:57.927Z,26.75
2018-02-23T00:30:25.462Z,27.80
2018-02-23T00:32:53.736Z,27.50
2018-02-23T00:35:22.376Z,21.33
2018-02-23T00:37:49.872Z,28.30
2018-02-23T00:40:18.213Z,28.75
2018-02-23T00:42:46.125Z,30.42
2018-02-23T00:45:14.759Z,27.67
2018-02-23T00:47:42.240Z,27.90
2018-02-23T00:50:10.024Z,30.80
2018-02-23T00:52:37.521Z,29.83
2018-02-23T00:55:05.048Z,29.50
2018-02-23T00:57:32.547Z,28.30
2018-02-23T01:00:00.052Z,28.27
2018-02-23T01:02:27.595Z,28.45
2018-02-23T01:04:55.390Z,28.42
2018-02-23T01:07:22.922Z,29.35
2018-02-23T01:09:50.401Z,24.08
2018-02-23T01:12:18.718Z,30.35
2018-02-23T01:14:46.214Z,30.23
2018-02-23T01:17:13.761Z,26.05
2018-02-23T01:19:41.555Z,29.35
2018-02-23T01:22:09.816Z,28.20
2018-02-23T01:24:37.301Z,26.08
2018-02-23T01:27:04.821Z,29.37
2018-02-23T01:29:32.360Z,25.62
2018-02-23T01:31:59.859Z,23.33
2018-02-23T01:34:27.725Z,29.95
2018-02-23T01:36:55.223Z,29.65
2018-02-23T01:39:22.736Z,29.58
2018-02-23T01:41:50.500Z,29.73
2018-02-23T01:44:17.992Z,28.38
2018-02-23T01:46:45.503Z,27.13
2018-02-23T01:49:13.328Z,28.80
2018-02-23T01:51:40.876Z,28.62
2018-02-23T01:54:08.380Z,29.45
2018-02-23T01:56:35.880Z,29.05
2018-02-23T01:59:03.395Z,30.17
2018-02-23T02:01:30.886Z,30.02
2018-02-23T02:03:59.579Z,28.70
2018-02-23T02:06:28.034Z,31.20
2018-02-23T02:08:55.553Z,30.25
2018-02-23T02:11:23.367Z,29.25
2018-02-23T02:13:51.629Z,28.87
2018-02-23T02:16:19.111Z,31.17
2018-02-23T02:18:47.524Z,31.40
2018-02-23T02:21:15.047Z,29.63
2018-02-23T02:23:43.362Z,29.80
2018-02-23T02:26:11.287Z,28.02
2018-02-23T02:28:39.600Z,30.48
2018-02-23T02:31:07.111Z,30.48
2018-02-23T02:33:34.656Z,31.67
2018-02-23T02:36:02.194Z,29.90
2018-02-23T02:38:29.690Z,27.85
2018-02-23T02:40:58.223Z,30.98
2018-02-23T02:43:25.744Z,28.60
2018-02-23T02:45:54.083Z,30.67
2018-02-23T02:48:21.899Z,30.37
2018-02-23T02:50:50.138Z,30.45
2018-02-23T02:53:17.672Z,30.62
2018-02-23T02:55:45.320Z,30.92
2018-02-23T02:58:12.823Z,30.50
2018-02-23T03:00:40.301Z,31.02
2018-02-23T03:03:08.174Z,31.23
2018-02-23T03:05:35.729Z,28.38
2018-02-23T03:08:03.182Z,33.15
2018-02-23T03:10:31.896Z,32.67
2018-02-23T03:12:59.412Z,31.23
2018-02-23T03:15:27.675Z,29.08
2018-02-23T03:17:55.570Z,30.75
2018-02-23T03:20:23.827Z,30.98
2018-02-23T03:22:52.651Z,33.70
2018-02-23T03:25:20.488Z,26.58
2018-02-23T03:27:48.731Z,29.60
2018-02-23T03:30:16.216Z,29.95
2018-02-23T03:32:44.536Z,27.05
2018-02-23T03:35:12.095Z,32.95
2018-02-23T03:37:39.607Z,31.92
2018-02-23T03:40:08.195Z,30.33
2018-02-23T03:42:36.503Z,29.37
2018-02-23T03:45:04.001Z,29.95
2018-02-23T03:47:31.811Z,31.58
2018-02-23T03:49:59.296Z,31.12
2018-02-23T03:52:26.786Z,32.78
2018-02-23T03:54:54.282Z,28.73
2018-02-23T03:57:21.899Z,30.23
2018-02-23T03:59:49.397Z,31.40
2018-02-23T04:02:17.275Z,23.15
2018-02-23T04:04:44.848Z,31.25
2018-02-23T04:07:12.341Z,30.40
2018-02-23T04:09:39.892Z,29.85
2018-02-23T04:12:07.420Z,33.55
2018-02-23T04:14:34.935Z,32.40
2018-02-23T04:17:02.806Z,33.67
2018-02-23T04:19:31.124Z,32.83
2018-02-23T04:21:58.625Z,34.50
2018-02-23T04:24:26.143Z,33.33
2018-02-23T04:26:53.633Z,32.80
2018-02-23T04:29:21.140Z,31.25
2018-02-23T04:31:48.988Z,34.47
2018-02-23T04:34:16.502Z,31.02
2018-02-23T04:36:43.999Z,35.85
2018-02-23T04:39:11.855Z,32.63
2018-02-23T04:41:39.334Z,33.72
2018-02-23T04:44:07.652Z,32.28
2018-02-23T04:46:35.155Z,34.85
2018-02-23T04:49:02.639Z,34.38
2018-02-23T04:51:30.172Z,34.25
2018-02-23T04:53:58.703Z,34.25
2018-02-23T04:56:26.235Z,37.35
2018-02-23T04:58:53.738Z,34.60
2018-02-23T05:01:21.643Z,32.20
2018-02-23T05:03:49.144Z,33.83
2018-02-23T05:06:16.624Z,34.25
2018-02-23T05:08:44.136Z,37.97
2018-02-23T05:11:11.640Z,33.55
2018-02-23T05:13:39.191Z,33.40
2018-02-23T05:16:07.011Z,37.65
2018-02-23T05:18:34.575Z,36.65
2018-02-23T05:21:02.070Z,38.22
2018-02-23T05:23:29.840Z,34.47
2018-02-23T05:25:57.335Z,37.25
2018-02-23T05:28:25.589Z,36.65
2018-02-23T05:30:53.377Z,35.20
2018-02-23T05:33:21.647Z,38.30
2018-02-23T05:35:49.897Z,35.78
2018-02-23T05:38:17.400Z,36.75
2018-02-23T05:40:44.936Z,36.83
2018-02-23T05:43:13.604Z,37.85
2018-02-23T05:45:41.460Z,34.20
2018-02-23T05:48:09.001Z,34.25
2018-02-23T05:50:36.496Z,36.10
2018-02-23T05:53:05.177Z,36.60
2018-02-23T05:55:32.668Z,35.83
2018-02-23T05:58:00.171Z,37.72
2018-02-23T06:00:27.961Z,38.38
2018-02-23T06:02:56.293Z,34.03
2018-02-23T06:05:23.851Z,36.28
2018-02-23T06:07:51.362Z,36.92
2018-02-23T06:10:19.704Z,35.53
2018-02-23T06:12:47.193Z,37.63
2018-02-23T06:15:15.066Z,33.70
2018-02-23T06:17:48.908Z,32.85
2018-02-23T06:20:31.684Z,35.58
2018-02-23T06:22:59.955Z,36.53
2018-02-23T06:25:27.563Z,35.40
2018-02-23T06:27:55.328Z,35.20
2018-02-23T06:30:22.868Z,36.40
2018-02-23T06:32:50.365Z,32.78
2018-02-23T06:35:17.904Z,34.58
2018-02-23T06:37:45.425Z,32.58
2018-02-23T06:40:12.946Z,36.60
2018-02-23T06:42:40.866Z,33.85
2018-02-23T06:45:08.381Z,37.88
2018-02-23T06:47:35.893Z,37.28
2018-02-23T06:50:03.673Z,37.03
2018-02-23T06:52:31.192Z,38.28
2018-02-23T06:54:59.436Z,35.10
2018-02-23T06:57:26.923Z,34.28
2018-02-23T06:59:55.207Z,36.03
2018-02-23T07:02:22.790Z,34.25
2018-02-23T07:04:50.310Z,35.00
2018-02-23T07:07:18.576Z,34.35
2018-02-23T07:09:46.880Z,35.70
2018-02-23T07:12:14.719Z,33.60
2018-02-23T07:14:42.220Z,35.60
2018-02-23T07:17:09.752Z,33.50
2018-02-23T07:19:38.007Z,34.33
2018-02-23T07:22:05.560Z,34.00
2018-02-23T07:24:34.009Z,28.58
2018-02-23T07:27:01.516Z,33.33
2018-02-23T07:29:29.800Z,33.83
2018-02-23T07:31:58.043Z,32.75
2018-02-23T07:34:26.154Z,23.17
2018-02-23T07:36:53.708Z,28.70
2018-02-23T07:39:21.208Z,33.08
2018-02-23T07:41:49.016Z,33.38
2018-02-23T07:44:17.272Z,33.10
2018-02-23T07:46:44.851Z,26.05
2018-02-23T07:49:12.615Z,29.75
2018-02-23T07:51:40.847Z,30.60
2018-02-23T07:54:08.389Z,33.45
2018-02-23T07:56:36.267Z,30.45
2018-02-23T07:59:03.736Z,31.83
2018-02-23T08:01:31.222Z,29.85
2018-02-23T08:03:59.096Z,30.00
2018-02-23T08:06:27.371Z,31.30
2018-02-23T08:08:55.627Z,30.30
2018-02-23T08:11:23.259Z,30.40
2018-02-23T08:13:50.781Z,32.63
2018-02-23T08:16:18.341Z,31.87
2018-02-23T08:18:45.943Z,30.80
2018-02-23T08:21:13.423Z,29.85
2018-02-23T08:23:40.959Z,29.52
2018-02-23T08:26:08.847Z,29.12
2018-02-23T08:28:36.361Z,32.20
2018-02-23T08:31:03.972Z,30.15
2018-02-23T08:33:31.859Z,31.00
2018-02-23T08:35:59.326Z,27.15
2018-02-23T08:38:26.853Z,27.02
2018-02-23T08:40:55.427Z,28.55
2018-02-23T08:43:23.053Z,32.22
2018-02-23T08:45:50.601Z,28.62
2018-02-23T08:48:18.438Z,29.30
2018-02-23T08:50:45.953Z,27.90
2018-02-23T08:53:13.432Z,25.23
2018-02-23T08:55:41.212Z,22.40
2018-02-23T08:58:08.759Z,25.73
2018-02-23T09:00:48.094Z,26.20
2018-02-23T09:03:17.471Z,26.20
2018-02-23T09:05:44.953Z,26.05
2018-02-23T09:08:12.438Z,25.05
2018-02-23T09:10:39.928Z,26.30
2018-02-23T09:13:07.516Z,27.30
2018-02-23T09:15:35.299Z,24.30
2018-02-23T09:18:02.813Z,24.42
2018-02-23T09:20:30.317Z,20.50
2018-02-23T09:22:58.089Z,22.50
2018-02-23T09:25:26.340Z,25.40
2018-02-23T09:27:53.833Z,23.98
2018-02-23T09:30:22.400Z,19.85
2018-02-23T09:32:55.747Z,23.77
2018-02-23T09:35:23.259Z,23.98
2018-02-23T09:37:51.524Z,18.25
2018-02-23T09:40:19.796Z,24.80
2018-02-23T09:42:47.304Z,23.85
2018-02-23T09:45:14.864Z,23.80
2018-02-23T09:47:42.361Z,20.20
2018-02-23T09:50:09.879Z,24.20
2018-02-23T09:52:37.354Z,21.73
2018-02-23T09:55:04.872Z,22.98
2018-02-23T09:57:33.463Z,21.42
2018-02-23T10:00:00.951Z,21.50
2018-02-23T10:02:28.415Z,19.80
2018-02-23T10:04:55.956Z,21.30
2018-02-23T10:07:23.412Z,20.30
2018-02-23T10:09:50.887Z,17.98
2018-02-23T10:12:18.392Z,20.30
2018-02-23T10:14:46.653Z,20.20
2018-02-23T10:17:14.171Z,19.30
2018-02-23T10:19:41.724Z,21.60
2018-02-23T10:22:09.726Z,15.60
2018-02-23T10:24:37.204Z,13.13
2018-02-23T10:27:05.505Z,14.00
2018-02-23T10:29:32.986Z,11.05
2018-02-23T10:32:00.572Z,13.43
2018-02-23T10:34:28.065Z,13.15
2018-02-23T10:36:56.346Z,13.50
2018-02-23T10:39:23.856Z,10.90
2018-02-23T10:41:51.677Z,10.80
2018-02-23T10:44:19.161Z,14.05
2018-02-23T10:46:46.664Z,8.90
2018-02-23T10:49:14.937Z,12.57
2018-02-23T10:51:42.447Z,9.32
2018-02-23T10:54:10.001Z,8.50
2018-02-23T10:56:37.935Z,11.57
2018-02-23T10:59:06.168Z,10.35
2018-02-23T11:01:33.712Z,9.77
2018-02-23T11:04:01.543Z,8.50
2018-02-23T11:06:29.024Z,7.30
2018-02-23T11:08:56.581Z,9.15
2018-02-23T11:11:24.551Z,9.80
2018-02-23T11:13:52.065Z,9.48
2018-02-23T11:16:20.340Z,9.90
2018-02-23T11:18:47.928Z,11.20
2018-02-23T11:21:15.414Z,12.20
2018-02-23T11:23:42.963Z,8.52
2018-02-23T11:26:10.537Z,11.52
2018-02-23T11:28:38.025Z,10.02
2018-02-23T11:31:05.561Z,9.30
2018-02-23T11:33:33.056Z,9.05
2018-02-23T11:36:01.321Z,10.13
2018-02-23T11:38:28.804Z,10.10
2018-02-23T11:40:57.474Z,9.75
2018-02-23T11:43:25.072Z,10.68
2018-02-23T11:45:52.543Z,8.10
2018-02-23T11:48:20.352Z,9.48
2018-02-23T11:50:47.853Z,6.93
2018-02-23T11:53:15.345Z,9.25
2018-02-23T11:55:42.855Z,10.07
2018-02-23T11:58:10.337Z,9.40
2018-02-23T12:00:37.843Z,9.50
2018-02-23T12:03:06.100Z,10.20
2018-02-23T12:05:33.628Z,10.38
2018-02-23T12:08:01.188Z,9.90
2018-02-23T12:10:28.743Z,10.63
2018-02-23T12:12:56.276Z,9.68
2018-02-23T12:15:23.764Z,9.90
2018-02-23T12:17:51.586Z,12.25
2018-02-23T12:20:19.848Z,10.57
2018-02-23T12:22:48.083Z,10.70
2018-02-23T12:25:15.577Z,10.52
2018-02-23T12:27:43.065Z,10.88
2018-02-23T12:30:10.546Z,11.43
2018-02-23T12:32:38.402Z,10.05
2018-02-23T12:35:05.955Z,11.50
2018-02-23T12:37:33.440Z,11.40
2018-02-23T12:40:01.253Z,13.18
2018-02-23T12:42:30.685Z,12.30
2018-02-23T12:44:58.166Z,13.20
2018-02-23T12:47:25.685Z,13.62
2018-02-23T12:49:53.268Z,13.68
2018-02-23T12:52:20.736Z,11.38
2018-02-23T12:54:48.379Z,13.40
2018-02-23T12:57:15.892Z,13.38
2018-02-23T12:59:44.246Z,13.30
2018-02-23T13:02:11.775Z,13.80
2018-02-23T13:04:39.253Z,14.63
2018-02-23T13:07:06.751Z,13.48
2018-02-23T13:09:35.454Z,11.75
2018-02-23T13:12:02.936Z,12.37
2018-02-23T13:14:36.171Z,13.10
2018-02-23T13:17:03.665Z,12.73
2018-02-23T13:19:31.160Z,11.65
2018-02-23T13:21:58.655Z,10.65
2018-02-23T13:24:26.129Z,12.05
2018-02-23T13:26:55.028Z,13.57
2018-02-23T13:29:22.520Z,12.57
2018-02-23T13:31:50.009Z,11.32
2018-02-23T13:34:17.483Z,14.25
2018-02-23T13:36:46.059Z,12.02
2018-02-23T13:39:14.308Z,12.37
2018-02-23T13:41:41.800Z,12.95
2018-02-23T13:44:10.361Z,13.25
2018-02-23T13:46:37.844Z,12.07
2018-02-23T13:49:06.094Z,9.80
2018-02-23T13:51:35.740Z,12.60
2018-02-23T13:54:08.916Z,13.60
2018-02-23T13:56:37.584Z,13.07
2018-02-23T13:59:05.092Z,9.13
2018-02-23T14:01:32.574Z,12.07
2018-02-23T14:04:00.080Z,11.65
2018-02-23T14:06:30.074Z,10.23
2018-02-23T14:08:57.552Z,14.13
2018-02-23T14:11:25.095Z,11.27
2018-02-23T14:13:53.344Z,11.25
2018-02-23T14:16:20.831Z,13.90
2018-02-23T14:18:49.147Z,14.00
2018-02-23T14:21:16.664Z,10.15
2018-02-23T14:23:44.903Z,12.63
2018-02-23T14:26:12.715Z,10.65
2018-02-23T14:28:40.990Z,11.05
2018-02-23T14:31:08.548Z,10.68
2018-02-23T14:33:37.217Z,9.40
2018-02-23T14:36:04.685Z,11.98
2018-02-23T14:38:32.952Z,10.70
2018-02-23T14:41:00.476Z,10.88
2018-02-23T14:43:27.945Z,10.52
2018-02-23T14:45:55.430Z,8.65
2018-02-23T14:48:35.527Z,10.35
2018-02-23T14:51:09.930Z,11.52
2018-02-23T14:53:37.690Z,7.07
2018-02-23T14:56:05.179Z,9.20
2018-02-23T14:58:32.683Z,10.70
2018-02-23T15:01:01.269Z,10.90
2018-02-23T15:03:29.564Z,10.77
2018-02-23T15:05:57.043Z,8.98
2018-02-23T15:08:24.930Z,10.23
2018-02-23T15:10:52.409Z,8.65
2018-02-23T15:13:19.910Z,8.77
2018-02-23T15:15:47.787Z,9.95
2018-02-23T15:18:15.369Z,9.00
2018-02-23T15:20:42.845Z,8.68
2018-02-23T15:23:10.727Z,9.27
2018-02-23T15:25:39.020Z,8.82
2018-02-23T15:28:06.500Z,7.93
2018-02-23T15:30:45.947Z,10.13
2018-02-23T15:33:13.433Z,9.82
2018-02-23T15:35:40.931Z,9.20
2018-02-23T15:38:08.444Z,9.88
2018-02-23T15:40:35.935Z,7.53
2018-02-23T15:43:04.172Z,8.70
2018-02-23T15:45:32.020Z,7.80
2018-02-23T15:48:05.132Z,7.20
2018-02-23T15:50:38.129Z,6.20
2018-02-23T15:53:05.607Z,9.10
2018-02-23T15:55:33.842Z,9.50
2018-02-23T16:11:23.619Z,6.20
2018-02-23T16:13:51.108Z,7.03
2018-02-23T16:16:19.403Z,6.10
2018-02-23T16:18:46.898Z,7.70
2018-02-23T16:21:14.420Z,8.05
2018-02-23T16:23:41.904Z,8.43
2018-02-23T16:26:09.864Z,9.63
2018-02-23T16:28:37.328Z,8.18
2018-02-23T16:31:04.804Z,7.60
2018-02-23T16:33:34.548Z,7.10
2018-02-23T16:36:02.832Z,8.45
2018-02-23T16:38:31.080Z,6.45
2018-02-23T16:40:58.728Z,8.93
2018-02-23T16:43:26.212Z,8.60
2018-02-23T16:45:54.440Z,6.80
2018-02-23T16:48:21.940Z,8.75
2018-02-23T16:50:49.404Z,10.25
2018-02-23T16:53:17.656Z,9.45
2018-02-23T16:55:45.155Z,7.05
2018-02-23T16:58:12.672Z,10.00
2018-02-23T17:00:40.177Z,10.85
2018-02-23T17:03:07.731Z,12.90
2018-02-23T17:05:35.225Z,11.15
2018-02-23T17:08:02.716Z,7.10
2018-02-23T17:10:30.196Z,11.80
2018-02-23T17:12:57.784Z,9.25
2018-02-23T17:15:25.257Z,8.88
2018-02-23T17:17:52.776Z,8.90
2018-02-23T17:20:20.274Z,9.43
2018-02-23T17:22:47.805Z,9.73
2018-02-23T17:25:15.283Z,7.95
2018-02-23T17:27:42.780Z,9.85
2018-02-23T17:30:10.259Z,8.95
2018-02-23T17:32:37.757Z,8.25
2018-02-23T17:35:05.268Z,8.75
2018-02-23T17:37:33.524Z,8.93
2018-02-23T17:40:01.054Z,8.60
2018-02-23T17:42:28.599Z,8.85
2018-02-23T17:44:56.108Z,8.48
2018-02-23T17:47:23.620Z,8.35
2018-02-23T17:49:51.118Z,8.75
2018-02-23T17:52:18.603Z,8.15
2018-02-23T17:54:46.861Z,7.70
2018-02-23T17:57:15.097Z,8.40
2018-02-23T17:59:42.587Z,8.02
2018-02-23T18:02:10.068Z,8.57
2018-02-23T18:04:37.548Z,7.20
2018-02-23T18:07:05.088Z,7.65
2018-02-23T18:09:32.616Z,7.00
2018-02-23T18:12:00.093Z,7.80
2018-02-23T18:14:28.375Z,8.55
2018-02-23T18:16:55.892Z,8.85
2018-02-23T18:19:23.376Z,8.65
2018-02-23T18:21:51.625Z,9.18
2018-02-23T18:24:19.409Z,7.35
2018-02-23T18:26:47.659Z,10.13
2018-02-23T18:29:15.144Z,9.05
2018-02-23T18:31:43.742Z,7.72
2018-02-23T18:34:12.059Z,9.88
2018-02-23T18:36:39.581Z,9.45
2018-02-23T18:39:07.348Z,8.43
2018-02-23T18:41:34.843Z,9.52
2018-02-23T18:44:02.361Z,9.48
2018-02-23T18:46:30.219Z,10.07
2018-02-23T18:48:58.444Z,8.95
2018-02-23T18:51:25.972Z,9.18
2018-02-23T18:53:53.492Z,8.88
2018-02-23T18:56:20.975Z,8.95
2018-02-23T18:58:48.558Z,8.75
2018-02-23T19:01:16.423Z,9.73
2018-02-23T19:03:43.890Z,7.80
2018-02-23T19:06:11.359Z,8.23
2018-02-23T19:08:39.172Z,9.35
2018-02-23T19:11:07.416Z,9.90
2018-02-23T19:13:34.900Z,9.35
2018-02-23T19:16:03.159Z,9.00
2018-02-23T19:18:30.629Z,9.50
2018-02-23T19:20:58.872Z,8.35
2018-02-23T19:23:26.387Z,9.18
2018-02-23T19:25:53.885Z,7.93
2018-02-23T19:28:21.391Z,8.88
2018-02-23T19:30:48.909Z,10.27
2018-02-23T19:33:16.387Z,9.10
2018-02-23T19:35:43.860Z,10.60
2018-02-23T19:38:11.707Z,10.55
2018-02-23T19:40:39.182Z,9.70
2018-02-23T19:43:06.672Z,8.32
2018-02-23T19:45:34.164Z,8.02
2018-02-23T19:48:01.676Z,6.93
2018-02-23T19:50:29.658Z,7.22
2018-02-23T19:52:57.161Z,6.85
2018-02-23T19:55:24.642Z,10.40
2018-02-23T19:57:52.880Z,9.48
2018-02-23T20:00:20.364Z,7.53
2018-02-23T20:02:47.937Z,6.57
2018-02-23T20:05:15.385Z,10.05
2018-02-23T20:07:44.003Z,8.48
2018-02-23T20:10:11.512Z,8.55
2018-02-23T20:12:39.872Z,8.65
2018-02-23T20:15:07.619Z,8.82
2018-02-23T20:17:35.106Z,10.10
2018-02-23T20:20:03.384Z,8.77
2018-02-23T20:22:31.173Z,8.32
2018-02-23T20:24:58.668Z,6.70
2018-02-23T20:27:26.232Z,8.07
2018-02-23T20:29:53.722Z,8.55
2018-02-23T20:32:21.208Z,8.48
2018-02-23T20:34:48.676Z,8.20
2018-02-23T20:37:16.188Z,8.57
2018-02-23T20:39:43.736Z,11.50
2018-02-23T20:42:11.243Z,7.87
2018-02-23T20:44:39.080Z,9.27
2018-02-23T20:47:06.567Z,8.35
2018-02-23T20:49:34.155Z,10.48
2018-02-23T20:52:01.663Z,8.65
2018-02-23T20:54:29.932Z,9.80
2018-02-23T20:56:58.187Z,8.30
2018-02-23T20:59:26.000Z,9.25
2018-02-23T21:01:53.486Z,8.60
2018-02-23T21:04:20.952Z,9.65
2018-02-23T21:06:48.903Z,10.50
2018-02-23T21:09:16.399Z,9.95
2018-02-23T21:11:43.877Z,9.68
2018-02-23T21:14:12.148Z,8.02
2018-02-23T21:16:39.623Z,9.90
2018-02-23T21:19:07.127Z,10.05
2018-02-23T21:21:34.880Z,8.85
2018-02-23T21:24:02.353Z,9.05
2018-02-23T21:26:29.835Z,9.23
2018-02-23T21:28:59.947Z,9.68
2018-02-23T21:31:27.424Z,8.93
2018-02-23T21:33:55.761Z,6.72
2018-02-23T21:36:23.256Z,9.77
2018-02-23T21:38:50.746Z,11.50
2018-02-23T21:41:18.240Z,7.40
2018-02-23T21:43:45.732Z,9.60
2018-02-23T21:46:13.990Z,6.85
2018-02-23T21:48:41.471Z,10.68
2018-02-23T21:51:08.988Z,9.30
2018-02-23T21:53:36.472Z,10.25
2018-02-23T21:56:04.753Z,8.73
2018-02-23T21:58:33.030Z,10.85
2018-02-23T22:01:01.269Z,8.27
2018-02-23T22:03:28.756Z,9.13
2018-02-23T22:05:56.289Z,11.25
2018-02-23T22:08:23.760Z,6.12
2018-02-23T22:10:51.245Z,9.45
2018-02-23T22:13:18.772Z,12.27
2018-02-23T22:15:46.292Z,11.10
2018-02-23T22:18:13.786Z,10.45
2018-02-23T22:20:41.306Z,12.20
2018-02-23T22:23:08.806Z,8.20
2018-02-23T22:25:37.064Z,11.75
2018-02-23T22:28:04.918Z,11.70
2018-02-23T22:30:32.434Z,11.88
2018-02-23T22:32:59.932Z,8.05
2018-02-23T22:35:27.863Z,9.52
2018-02-23T22:37:55.347Z,11.02
2018-02-23T22:40:22.860Z,12.77
2018-02-23T22:42:50.622Z,9.15
2018-02-23T22:45:18.892Z,12.90
2018-02-23T22:47:46.372Z,11.43
2018-02-23T22:50:15.061Z,12.43
2018-02-23T22:52:42.645Z,13.05
2018-02-23T22:55:10.137Z,10.48
2018-02-23T22:57:37.667Z,12.35
2018-02-23T23:00:05.169Z,13.85
2018-02-23T23:02:32.645Z,10.13
2018-02-23T23:05:00.913Z,12.98
2018-02-23T23:07:29.162Z,11.35
2018-02-23T23:09:56.665Z,9.57
2018-02-23T23:12:24.470Z,12.70
2018-02-23T23:14:51.977Z,10.43
2018-02-23T23:17:19.478Z,10.65
2018-02-23T23:19:47.283Z,10.43
2018-02-23T23:22:14.770Z,11.12
2018-02-23T23:24:42.258Z,11.05
2018-02-23T23:27:10.087Z,10.18
2018-02-23T23:29:37.603Z,8.98
2018-02-23T23:32:05.153Z,12.15
2018-02-23T23:34:32.945Z,9.77
2018-02-23T23:37:01.228Z,10.85
2018-02-23T23:39:31.624Z,9.02
2018-02-23T23:41:59.130Z,11.82
2018-02-23T23:44:27.454Z,10.57
2018-02-23T23:46:54.972Z,8.93
2018-02-23T23:49:22.501Z,12.85
2018-02-23T23:51:50.744Z,11.98
2018-02-23T23:54:18.207Z,12.48
2018-02-23T23:56:46.092Z,9.85
2018-02-23T23:59:13.556Z,8.60
